Accueil
METAR-TAF:

METAR-TAF

Aéroports :

Aéroport international de Tianjin Binhai

Tianjin, Chine

latitude: 39-11N, longitude: 117-21E, altitude: 3 m

Observation

Le bulletin a été fait il y a 30 minutes, à 12:00 UTC
Vent 6 kt de sud/sud-ouest, variant entre sud et ouest/sud-ouest
Température 21°C
Humidité 25%
Pression 1012 hPa
Visibilité 10 km ou plus
pas de nuages en-dessous de 1500 mètres et pas de cumulonimbus.

METAR: ZBTJ 181200Z 21003MPS 180V240 CAVOK 21/00 Q1012 NOSIG

Heure: 20:30 (12:30 UTC)

Prévision

Le bulletin a été fait il y a 3 heures et 29 minutes, à 09:01 UTC
Prévision valable du 18 à 12 UTC au 19 à 12 UTC
Vent 8 kt de sud-ouest
Visibilité: 5000 m
brume sèche

TAF: ZBTJ 180901Z 1812/1912 23004MPS 5000 HZ NSC TX28/1907Z TN13/1821Z

Observations et prévisions météorologiques de plus de 4000 aéroports (messages METAR et TAF).

Les stations disponibles sont représentées par des disques jaunes et rouges sur la carte.

Passer la souris dessus pour voir le nom de la station.

Cliquer dessus pour voir les observations et prévisions météorologiques.

Pour changer de carte: cliquez sur les boutons verts avec une croix noire pour zoomer, sur le bouton vert avec un tiret pour effectuer un zoom arrière, ou sur les flèches vertes pour les cartes adjacentes.


METAR-TAF: